createdAt,value
2022-10-07T00:01:04.834Z,6.85
2022-10-07T00:03:32.666Z,6.70
2022-10-07T00:06:14.890Z,6.78
2022-10-07T00:08:45.494Z,6.55
2022-10-07T00:11:21.559Z,6.57
2022-10-07T00:13:52.952Z,7.50
2022-10-07T00:16:26.337Z,7.50
2022-10-07T00:18:58.425Z,7.95
2022-10-07T00:21:29.462Z,8.93
2022-10-07T00:23:58.481Z,8.50
2022-10-07T00:26:28.539Z,7.80
2022-10-07T00:28:57.035Z,7.90
2022-10-07T00:31:27.690Z,8.15
2022-10-07T00:33:56.615Z,9.93
2022-10-07T00:36:30.061Z,9.33
2022-10-07T00:39:02.088Z,9.52
2022-10-07T00:41:38.642Z,9.30
2022-10-07T00:44:44.183Z,9.38
2022-10-07T00:47:23.385Z,9.88
2022-10-07T00:50:02.229Z,10.68
2022-10-07T00:52:33.753Z,10.25
2022-10-07T00:55:05.323Z,10.55
2022-10-07T00:57:34.275Z,10.88
2022-10-07T01:02:31.366Z,9.52
2022-10-07T01:05:01.782Z,10.82
2022-10-07T01:07:30.434Z,11.95
2022-10-07T01:09:59.707Z,12.88
2022-10-07T01:12:32.144Z,14.70
2022-10-07T01:15:24.949Z,16.60
2022-10-07T01:18:08.868Z,15.15
2022-10-07T01:20:45.208Z,14.68
2022-10-07T01:23:36.752Z,13.85
2022-10-07T01:26:14.586Z,14.05
2022-10-07T01:28:58.193Z,12.85
2022-10-07T01:31:35.214Z,12.95
2022-10-07T01:34:06.378Z,13.05
2022-10-07T01:36:37.122Z,13.00
2022-10-07T01:39:11.435Z,11.80
2022-10-07T01:41:40.273Z,10.52
2022-10-07T01:44:12.041Z,10.68
2022-10-07T01:46:39.721Z,10.60
2022-10-07T01:49:10.708Z,10.35
2022-10-07T01:51:58.168Z,10.23
2022-10-07T01:54:38.946Z,11.55
2022-10-07T01:57:38.296Z,10.00
2022-10-07T02:00:11.458Z,10.45
2022-10-07T02:02:42.485Z,9.88
2022-10-07T02:05:27.340Z,10.27
2022-10-07T02:08:16.513Z,10.52
2022-10-07T02:11:01.606Z,10.13
2022-10-07T02:13:44.793Z,11.75
2022-10-07T02:16:29.571Z,9.82
2022-10-07T02:19:01.960Z,9.40
2022-10-07T02:21:36.468Z,9.68
2022-10-07T02:24:05.758Z,7.97
2022-10-07T02:26:35.693Z,8.77
2022-10-07T02:29:07.798Z,7.70
2022-10-07T02:31:38.040Z,7.47
2022-10-07T02:36:47.213Z,6.47
2022-10-07T02:39:15.131Z,6.97
2022-10-07T02:41:51.052Z,6.80
2022-10-07T02:47:08.935Z,7.00
2022-10-07T02:49:40.389Z,7.38
2022-10-07T02:52:12.001Z,6.93
2022-10-07T02:54:46.340Z,6.88
2022-10-07T02:57:18.041Z,6.80
2022-10-07T02:59:49.032Z,5.80
2022-10-07T03:02:30.389Z,6.05
2022-10-07T03:04:59.035Z,6.07
2022-10-07T03:07:28.722Z,6.55
2022-10-07T03:09:57.357Z,6.43
2022-10-07T03:12:25.017Z,6.07
2022-10-07T03:14:54.146Z,6.30
2022-10-07T03:17:22.483Z,5.72
2022-10-07T03:19:50.625Z,5.50
2022-10-07T03:22:18.185Z,6.18
2022-10-07T03:24:45.890Z,5.85
2022-10-07T03:27:15.235Z,5.80
2022-10-07T03:29:43.181Z,5.50
2022-10-07T03:32:11.603Z,6.53
2022-10-07T03:34:39.098Z,6.18
2022-10-07T03:37:07.921Z,5.70
2022-10-07T03:39:35.984Z,5.70
2022-10-07T03:42:03.513Z,5.88
2022-10-07T03:44:34.093Z,6.20
2022-10-07T03:47:02.154Z,6.07
2022-10-07T03:49:30.976Z,6.32
2022-10-07T03:52:00.217Z,5.88
2022-10-07T03:54:28.902Z,5.60
2022-10-07T03:56:57.899Z,5.30
2022-10-07T03:59:26.440Z,5.05
2022-10-07T04:01:54.991Z,6.25
2022-10-07T04:04:23.882Z,5.55
2022-10-07T04:06:52.034Z,5.47
2022-10-07T04:09:20.464Z,5.90
2022-10-07T04:11:50.570Z,5.95
2022-10-07T04:14:19.381Z,5.57
2022-10-07T04:16:46.889Z,5.43
2022-10-07T04:19:14.758Z,5.72
2022-10-07T04:21:44.499Z,5.53
2022-10-07T04:24:12.333Z,5.60
2022-10-07T04:26:40.032Z,5.40
2022-10-07T04:29:07.620Z,5.10
2022-10-07T04:31:36.075Z,5.95
2022-10-07T04:34:06.943Z,6.38
2022-10-07T04:36:39.032Z,5.80
2022-10-07T04:39:13.600Z,6.00
2022-10-07T04:41:51.619Z,5.35
2022-10-07T04:44:23.108Z,5.60
2022-10-07T04:46:56.936Z,5.45
2022-10-07T04:49:27.543Z,5.85
2022-10-07T04:51:56.842Z,5.68
2022-10-07T04:54:32.037Z,5.05
2022-10-07T04:57:00.196Z,5.85
2022-10-07T05:01:58.926Z,5.27
2022-10-07T05:04:27.889Z,5.35
2022-10-07T05:09:25.481Z,5.15
2022-10-07T05:11:56.581Z,5.60
2022-10-07T05:14:26.071Z,5.38
2022-10-07T05:16:55.979Z,5.35
2022-10-07T05:19:28.936Z,5.78
2022-10-07T05:21:56.744Z,5.53
2022-10-07T05:24:26.139Z,5.90
2022-10-07T05:26:54.617Z,5.43
2022-10-07T05:29:22.657Z,5.68
2022-10-07T05:31:52.753Z,5.75
2022-10-07T05:34:24.252Z,5.57
2022-10-07T05:36:53.636Z,5.95
2022-10-07T05:39:21.188Z,5.35
2022-10-07T05:41:55.742Z,5.97
2022-10-07T05:44:29.659Z,6.22
2022-10-07T05:46:59.020Z,5.85
2022-10-07T05:49:27.923Z,5.55
2022-10-07T05:51:56.368Z,6.20
2022-10-07T05:54:24.652Z,5.85
2022-10-07T05:56:54.078Z,5.82
2022-10-07T05:59:22.353Z,5.82
2022-10-07T06:01:50.835Z,5.80
2022-10-07T06:04:23.715Z,6.13
2022-10-07T06:06:53.709Z,6.55
2022-10-07T06:09:42.933Z,6.57
2022-10-07T06:12:34.491Z,6.47
2022-10-07T06:15:07.306Z,7.13
2022-10-07T06:17:36.035Z,36.23
2022-10-07T06:20:07.681Z,6.80
2022-10-07T06:22:35.948Z,8.40
2022-10-07T06:25:04.076Z,6.72
2022-10-07T06:27:35.280Z,7.40
2022-10-07T06:30:05.144Z,7.15
2022-10-07T06:32:32.939Z,6.97
2022-10-07T06:35:01.597Z,7.07
2022-10-07T06:37:32.875Z,7.50
2022-10-07T06:40:01.344Z,7.05
2022-10-07T06:42:32.212Z,6.43
2022-10-07T06:45:19.740Z,8.25
2022-10-07T06:47:49.986Z,6.72
2022-10-07T06:50:17.943Z,7.57
2022-10-07T06:52:45.502Z,7.85
2022-10-07T06:55:13.616Z,7.05
2022-10-07T06:57:45.794Z,7.50
2022-10-07T07:00:24.103Z,7.50
2022-10-07T07:02:51.908Z,7.68
2022-10-07T07:05:19.557Z,6.90
2022-10-07T07:10:17.837Z,7.53
2022-10-07T07:12:54.042Z,11.18
2022-10-07T07:15:22.713Z,7.50
2022-10-07T07:17:50.716Z,6.97
2022-10-07T07:20:19.055Z,6.90
2022-10-07T07:22:47.508Z,7.07
2022-10-07T07:25:15.272Z,7.57
2022-10-07T07:27:46.797Z,6.95
2022-10-07T07:30:15.210Z,7.15
2022-10-07T07:32:45.895Z,7.22
2022-10-07T07:35:14.199Z,7.45
2022-10-07T07:37:42.776Z,6.88
2022-10-07T07:40:10.780Z,7.63
2022-10-07T07:42:39.149Z,7.32
2022-10-07T07:45:08.157Z,7.28
2022-10-07T07:47:35.876Z,7.18
2022-10-07T07:50:05.124Z,7.10
2022-10-07T07:52:34.977Z,7.45
2022-10-07T07:55:04.388Z,7.28
2022-10-07T07:57:33.204Z,7.82
2022-10-07T08:00:07.601Z,7.72
2022-10-07T08:02:56.155Z,7.15
2022-10-07T08:05:25.170Z,7.05
2022-10-07T08:07:56.494Z,7.03
2022-10-07T08:12:55.760Z,7.05
2022-10-07T08:15:26.194Z,7.25
2022-10-07T08:17:56.237Z,7.45
2022-10-07T08:20:23.836Z,6.50
2022-10-07T08:22:56.828Z,7.40
2022-10-07T08:25:28.332Z,7.53
2022-10-07T08:27:58.777Z,7.57
2022-10-07T08:30:26.949Z,7.43
2022-10-07T08:32:59.042Z,6.65
2022-10-07T08:35:28.688Z,6.80
2022-10-07T08:37:56.814Z,7.00
2022-10-07T08:40:26.484Z,6.82
2022-10-07T08:42:54.722Z,6.47
2022-10-07T08:45:33.437Z,6.43
2022-10-07T08:48:07.590Z,6.33
2022-10-07T08:51:02.486Z,5.75
2022-10-07T08:53:34.162Z,6.18
2022-10-07T08:56:12.870Z,5.90
2022-10-07T08:58:55.714Z,6.13
2022-10-07T09:01:48.012Z,6.32
2022-10-07T09:04:45.324Z,6.07
2022-10-07T09:07:25.676Z,5.70
2022-10-07T09:12:54.166Z,5.88
2022-10-07T09:15:38.119Z,6.10
2022-10-07T09:18:23.452Z,5.78
2022-10-07T09:20:56.269Z,5.82
2022-10-07T09:23:29.988Z,6.10
2022-10-07T09:25:57.606Z,6.20
2022-10-07T09:28:29.777Z,6.57
2022-10-07T09:31:03.060Z,6.15
2022-10-07T09:33:31.103Z,5.90
2022-10-07T09:36:06.616Z,6.57
2022-10-07T09:38:40.005Z,5.90
2022-10-07T09:41:16.288Z,5.43
2022-10-07T09:43:49.533Z,5.22
2022-10-07T09:46:39.457Z,4.88
2022-10-07T09:49:07.632Z,4.35
2022-10-07T09:51:35.648Z,3.90
2022-10-07T09:54:06.325Z,4.68
2022-10-07T09:56:38.262Z,4.50
2022-10-07T09:59:29.698Z,4.47
2022-10-07T10:01:58.759Z,4.10
2022-10-07T10:04:37.860Z,3.67
2022-10-07T10:07:25.743Z,3.90
2022-10-07T10:10:04.796Z,4.45
2022-10-07T10:12:45.320Z,4.10
2022-10-07T10:15:25.497Z,3.53
2022-10-07T10:17:56.926Z,4.10
2022-10-07T10:20:24.357Z,3.95
2022-10-07T10:22:52.399Z,3.78
2022-10-07T10:26:02.544Z,3.70
2022-10-07T10:28:45.008Z,3.60
2022-10-07T10:31:36.180Z,3.13
2022-10-07T10:34:48.385Z,4.18
2022-10-07T10:37:41.886Z,7.55
2022-10-07T10:40:24.184Z,4.05
2022-10-07T10:43:20.305Z,3.50
2022-10-07T10:46:08.979Z,3.75
2022-10-07T10:48:50.214Z,3.80
2022-10-07T10:51:17.833Z,3.72
2022-10-07T10:54:05.077Z,3.70
2022-10-07T10:56:38.326Z,3.47
2022-10-07T10:59:33.965Z,3.65
2022-10-07T11:02:31.747Z,3.50
2022-10-07T11:05:12.722Z,3.63
2022-10-07T11:07:47.910Z,3.28
2022-10-07T11:10:26.814Z,3.67
2022-10-07T11:12:59.149Z,7.43
2022-10-07T11:15:35.814Z,3.80
2022-10-07T11:18:08.761Z,3.97
2022-10-07T11:20:44.998Z,3.00
2022-10-07T11:23:18.473Z,3.85
2022-10-07T11:26:17.700Z,3.55
2022-10-07T11:28:47.117Z,4.78
2022-10-07T11:31:41.008Z,3.70
2022-10-07T11:34:15.373Z,3.47
2022-10-07T11:37:03.332Z,2.95
2022-10-07T11:42:22.271Z,3.40
2022-10-07T11:44:52.636Z,3.28
2022-10-07T11:47:28.187Z,3.25
2022-10-07T11:50:10.589Z,3.67
2022-10-07T11:52:49.276Z,3.03
2022-10-07T11:55:35.277Z,2.90
2022-10-07T11:58:04.384Z,2.85
2022-10-07T12:00:36.722Z,2.47
2022-10-07T12:03:33.761Z,2.60
2022-10-07T12:06:11.838Z,2.58
2022-10-07T12:08:42.148Z,2.45
2022-10-07T12:11:12.630Z,2.25
2022-10-07T12:13:45.261Z,2.30
2022-10-07T12:16:31.456Z,2.95
2022-10-07T12:19:07.991Z,3.00
2022-10-07T12:22:02.828Z,4.13
2022-10-07T12:24:31.762Z,3.30
2022-10-07T12:27:10.190Z,3.30
2022-10-07T12:29:58.466Z,3.90
2022-10-07T12:32:53.429Z,3.97
2022-10-07T12:35:40.165Z,3.25
2022-10-07T12:38:10.478Z,2.20
2022-10-07T12:40:41.554Z,2.70
2022-10-07T12:43:22.247Z,2.92
2022-10-07T12:45:50.474Z,2.70
2022-10-07T12:48:22.097Z,2.70
2022-10-07T12:50:53.674Z,2.50
2022-10-07T12:53:24.775Z,2.20
2022-10-07T12:55:55.963Z,3.03
2022-10-07T12:58:42.165Z,3.85
2022-10-07T13:01:15.560Z,2.50
2022-10-07T13:04:14.533Z,7.70
2022-10-07T13:06:55.635Z,2.63
2022-10-07T13:09:40.718Z,2.72
2022-10-07T13:12:34.732Z,2.40
2022-10-07T13:15:35.385Z,2.33
2022-10-07T13:18:13.222Z,2.42
2022-10-07T13:20:59.784Z,2.20
2022-10-07T13:23:30.679Z,2.47
2022-10-07T13:26:01.540Z,2.22
2022-10-07T13:28:49.354Z,2.70
2022-10-07T13:31:21.630Z,2.25
2022-10-07T13:33:51.412Z,2.13
2022-10-07T13:36:28.106Z,2.42
2022-10-07T13:39:16.288Z,2.60
2022-10-07T13:41:47.394Z,23.15
2022-10-07T13:44:19.988Z,12.85
2022-10-07T13:47:01.333Z,3.08
2022-10-07T13:49:34.713Z,2.50
2022-10-07T13:52:05.357Z,1.90
2022-10-07T13:54:34.135Z,2.60
2022-10-07T13:57:02.499Z,2.35
2022-10-07T13:59:36.645Z,2.33
2022-10-07T14:02:04.739Z,2.42
2022-10-07T14:04:34.400Z,2.90
2022-10-07T14:07:19.468Z,2.35
2022-10-07T14:09:49.319Z,2.40
2022-10-07T14:12:30.176Z,2.85
2022-10-07T14:15:13.041Z,3.03
2022-10-07T14:17:49.345Z,2.75
2022-10-07T14:20:19.579Z,2.88
2022-10-07T14:22:50.438Z,3.28
2022-10-07T14:25:20.082Z,2.92
2022-10-07T14:27:47.535Z,2.47
2022-10-07T14:30:55.507Z,2.60
2022-10-07T14:34:00.180Z,2.58
2022-10-07T14:36:27.751Z,2.63
2022-10-07T14:38:58.290Z,2.65
2022-10-07T14:41:30.491Z,2.38
2022-10-07T14:46:29.218Z,2.78
2022-10-07T14:48:56.809Z,3.50
2022-10-07T14:51:28.937Z,3.67
2022-10-07T14:54:02.246Z,4.72
2022-10-07T14:56:33.777Z,3.75
2022-10-07T14:59:01.684Z,3.67
2022-10-07T15:01:29.904Z,4.03
2022-10-07T15:03:58.374Z,3.30
2022-10-07T15:06:25.956Z,3.63
2022-10-07T15:08:53.745Z,3.83
2022-10-07T15:11:23.808Z,3.40
2022-10-07T15:13:52.571Z,3.50
2022-10-07T15:16:23.079Z,3.53
2022-10-07T15:18:53.182Z,6.63
2022-10-07T15:21:22.416Z,5.05
2022-10-07T15:23:54.171Z,4.55
2022-10-07T15:26:24.620Z,4.43
2022-10-07T15:28:55.253Z,4.22
2022-10-07T15:31:26.162Z,3.90
2022-10-07T15:33:57.255Z,3.97
2022-10-07T15:36:29.323Z,4.53
2022-10-07T15:39:02.199Z,4.10
2022-10-07T15:41:33.344Z,4.13
2022-10-07T15:44:03.878Z,3.60
2022-10-07T15:46:32.311Z,3.65
2022-10-07T15:49:00.122Z,3.97
2022-10-07T15:51:29.496Z,3.28
2022-10-07T15:53:57.262Z,3.72
2022-10-07T15:56:28.076Z,3.10
2022-10-07T15:58:55.899Z,2.90
2022-10-07T16:01:26.482Z,3.42
2022-10-07T16:03:54.603Z,3.70
2022-10-07T16:06:24.805Z,3.90
2022-10-07T16:08:55.824Z,4.13
2022-10-07T16:11:24.175Z,4.10
2022-10-07T16:13:52.817Z,4.47
2022-10-07T16:16:22.863Z,4.03
2022-10-07T16:18:52.007Z,3.55
2022-10-07T16:21:42.915Z,4.13
2022-10-07T16:24:15.323Z,4.28
2022-10-07T16:26:47.814Z,4.32
2022-10-07T16:29:39.597Z,4.82
2022-10-07T16:32:11.178Z,5.00
2022-10-07T16:34:43.623Z,5.20
2022-10-07T16:37:12.575Z,5.07
2022-10-07T16:39:40.614Z,5.25
2022-10-07T16:42:10.609Z,5.13
2022-10-07T16:44:38.891Z,6.30
2022-10-07T16:47:06.642Z,5.22
2022-10-07T16:49:36.520Z,5.00
2022-10-07T16:52:04.609Z,4.95
2022-10-07T16:54:35.511Z,5.53
2022-10-07T16:57:03.204Z,6.07
2022-10-07T16:59:31.502Z,8.38
2022-10-07T17:02:02.509Z,8.75
2022-10-07T17:04:30.334Z,8.48
2022-10-07T17:06:58.458Z,8.70
2022-10-07T17:09:26.580Z,9.30
2022-10-07T17:11:54.133Z,8.95
2022-10-07T17:14:23.015Z,8.23
2022-10-07T17:16:57.695Z,8.30
2022-10-07T17:19:28.746Z,7.90
2022-10-07T17:21:59.297Z,7.75
2022-10-07T17:24:27.296Z,8.60
2022-10-07T17:26:55.232Z,7.85
2022-10-07T17:29:26.147Z,7.90
2022-10-07T17:31:54.284Z,7.38
2022-10-07T17:34:24.264Z,6.38
2022-10-07T17:36:52.062Z,6.70
2022-10-07T17:39:19.819Z,7.05
2022-10-07T17:41:47.791Z,6.43
2022-10-07T17:44:15.627Z,6.45
2022-10-07T17:46:43.393Z,6.53
2022-10-07T17:49:13.400Z,6.22
2022-10-07T17:51:43.306Z,6.40
2022-10-07T17:54:12.843Z,6.07
2022-10-07T17:56:40.366Z,5.88
2022-10-07T17:59:08.148Z,6.78
2022-10-07T18:01:36.943Z,6.05
2022-10-07T18:04:07.303Z,6.07
2022-10-07T18:06:38.138Z,6.35
2022-10-07T18:11:55.911Z,6.78
2022-10-07T18:14:42.155Z,6.60
2022-10-07T18:17:10.728Z,6.35
2022-10-07T18:19:41.972Z,6.47
2022-10-07T18:22:10.145Z,5.75
2022-10-07T18:24:39.323Z,6.00
2022-10-07T18:27:06.841Z,6.25
2022-10-07T18:29:38.206Z,5.93
2022-10-07T18:32:07.321Z,5.88
2022-10-07T18:34:34.952Z,5.03
2022-10-07T18:37:02.800Z,5.35
2022-10-07T18:39:30.477Z,5.60
2022-10-07T18:41:58.361Z,5.53
2022-10-07T18:44:26.700Z,5.93
2022-10-07T18:46:54.233Z,7.07
2022-10-07T18:49:25.212Z,7.28
2022-10-07T18:51:53.103Z,7.38
2022-10-07T18:54:21.249Z,8.02
2022-10-07T18:56:50.547Z,8.95
2022-10-07T18:59:19.141Z,9.40
2022-10-07T19:01:50.434Z,9.30
2022-10-07T19:04:19.133Z,9.35
2022-10-07T19:06:47.404Z,9.73
2022-10-07T19:09:20.445Z,11.75
2022-10-07T19:11:49.214Z,9.93
2022-10-07T19:14:17.354Z,10.65
2022-10-07T19:16:51.423Z,11.32
2022-10-07T19:19:23.361Z,10.88
2022-10-07T19:21:55.311Z,21.13
2022-10-07T19:24:45.517Z,9.30
2022-10-07T19:27:13.280Z,9.35
2022-10-07T19:29:41.117Z,9.40
2022-10-07T19:32:09.104Z,7.78
2022-10-07T19:34:37.213Z,7.88
2022-10-07T19:37:04.720Z,6.80
2022-10-07T19:39:32.480Z,5.97
2022-10-07T19:42:00.133Z,7.47
2022-10-07T19:44:27.804Z,6.03
2022-10-07T19:46:55.378Z,6.13
2022-10-07T19:49:23.227Z,6.00
2022-10-07T19:51:50.687Z,6.03
2022-10-07T19:54:20.113Z,6.25
2022-10-07T19:56:48.100Z,6.43
2022-10-07T19:59:15.667Z,7.22
2022-10-07T20:01:45.371Z,7.15
2022-10-07T20:04:15.893Z,6.90
2022-10-07T20:06:44.431Z,6.60
2022-10-07T20:09:15.292Z,6.40
2022-10-07T20:11:52.057Z,7.40
2022-10-07T20:14:19.650Z,7.10
2022-10-07T20:16:47.265Z,7.15
2022-10-07T20:19:18.702Z,8.55
2022-10-07T20:21:47.513Z,10.35
2022-10-07T20:24:16.593Z,7.80
2022-10-07T20:26:45.115Z,7.60
2022-10-07T20:29:15.352Z,6.28
2022-10-07T20:31:43.864Z,5.53
2022-10-07T20:34:18.867Z,5.07
2022-10-07T20:36:46.505Z,4.57
2022-10-07T20:39:35.695Z,5.15
2022-10-07T20:42:21.810Z,4.68
2022-10-07T20:44:50.402Z,5.05
2022-10-07T20:47:21.045Z,5.28
2022-10-07T20:52:21.893Z,4.63
2022-10-07T20:54:51.259Z,5.45
2022-10-07T20:57:24.026Z,4.95
2022-10-07T20:59:51.899Z,4.85
2022-10-07T21:02:22.088Z,4.82
2022-10-07T21:04:50.832Z,5.55
2022-10-07T21:07:18.959Z,5.32
2022-10-07T21:12:17.715Z,5.18
2022-10-07T21:14:48.594Z,5.63
2022-10-07T21:17:17.824Z,5.65
2022-10-07T21:19:45.795Z,6.38
2022-10-07T21:22:13.283Z,5.95
2022-10-07T21:24:42.094Z,6.10
2022-10-07T21:27:09.796Z,9.23
2022-10-07T21:29:40.669Z,10.20
2022-10-07T21:32:09.896Z,9.20
2022-10-07T21:34:38.296Z,9.95
2022-10-07T21:37:05.904Z,8.38
2022-10-07T21:39:33.763Z,8.25
2022-10-07T21:42:02.167Z,8.05
2022-10-07T21:44:33.421Z,8.10
2022-10-07T21:47:01.215Z,8.40
2022-10-07T21:49:28.702Z,8.07
2022-10-07T21:51:56.419Z,8.55
2022-10-07T21:54:26.255Z,7.28
2022-10-07T21:56:54.249Z,7.18
2022-10-07T21:59:21.948Z,7.47
2022-10-07T22:01:49.617Z,6.95
2022-10-07T22:04:18.670Z,6.68
2022-10-07T22:07:05.565Z,6.82
2022-10-07T22:09:33.530Z,6.68
2022-10-07T22:12:01.377Z,6.50
2022-10-07T22:14:29.264Z,8.50
2022-10-07T22:16:58.238Z,6.22
2022-10-07T22:19:25.751Z,6.65
2022-10-07T22:21:53.964Z,5.93
2022-10-07T22:24:21.607Z,5.45
2022-10-07T22:26:51.181Z,5.85
2022-10-07T22:29:19.988Z,5.72
2022-10-07T22:31:47.826Z,6.00
2022-10-07T22:34:33.791Z,6.00
2022-10-07T22:37:01.671Z,6.07
2022-10-07T22:39:29.702Z,6.78
2022-10-07T22:41:58.569Z,6.05
2022-10-07T22:44:28.218Z,6.03
2022-10-07T22:51:59.979Z,5.95
2022-10-07T22:54:28.417Z,13.40
2022-10-07T22:57:00.740Z,6.50
2022-10-07T22:59:28.295Z,7.15
2022-10-07T23:01:55.746Z,6.75
2022-10-07T23:04:23.248Z,6.97
2022-10-07T23:06:50.895Z,6.63
2022-10-07T23:09:18.728Z,7.72
2022-10-07T23:11:46.219Z,7.05
2022-10-07T23:14:15.179Z,7.23
2022-10-07T23:16:44.339Z,6.80
2022-10-07T23:19:11.991Z,6.53
2022-10-07T23:21:39.504Z,7.18
2022-10-07T23:24:11.024Z,6.68
2022-10-07T23:26:40.079Z,6.95
2022-10-07T23:29:08.186Z,7.57
2022-10-07T23:31:39.066Z,7.32
2022-10-07T23:34:06.723Z,6.75
2022-10-07T23:36:34.985Z,6.70
2022-10-07T23:39:02.596Z,6.65
2022-10-07T23:41:31.111Z,6.80
2022-10-07T23:44:02.027Z,7.05
2022-10-07T23:46:36.496Z,6.95
2022-10-07T23:49:04.865Z,7.35
2022-10-07T23:51:33.256Z,6.80
2022-10-07T23:54:02.611Z,6.50
2022-10-07T23:56:31.271Z,7.05
2022-10-07T23:58:59.157Z,6.55
